createdAt,value
2019-05-01T00:00:25.831Z,1005.88
2019-05-01T00:01:25.799Z,1005.93
2019-05-01T00:02:25.719Z,1005.87
2019-05-01T00:03:25.710Z,1005.95
2019-05-01T00:04:25.702Z,1005.95
2019-05-01T00:05:25.752Z,1005.91
2019-05-01T00:06:25.669Z,1005.92
2019-05-01T00:07:25.660Z,1005.92
2019-05-01T00:08:25.639Z,1005.86
2019-05-01T00:09:25.639Z,1005.90
2019-05-01T00:10:25.632Z,1005.88
2019-05-01T00:11:25.651Z,1005.89
2019-05-01T00:12:25.632Z,1005.83
2019-05-01T00:13:25.589Z,1005.77
2019-05-01T00:14:25.579Z,1005.81
2019-05-01T00:15:25.582Z,1005.77
2019-05-01T00:16:25.562Z,1005.78
2019-05-01T00:17:27.784Z,1005.82
2019-05-01T00:18:25.545Z,1005.78
2019-05-01T00:19:25.542Z,1005.82
2019-05-01T00:20:25.557Z,1005.77
2019-05-01T00:21:25.512Z,1005.71
2019-05-01T00:22:25.510Z,1005.72
2019-05-01T00:23:25.495Z,1005.72
2019-05-01T00:24:25.483Z,1005.75
2019-05-01T00:25:25.473Z,1005.74
2019-05-01T00:26:25.453Z,1005.67
2019-05-01T00:27:25.475Z,1005.68
2019-05-01T00:28:25.431Z,1005.67
2019-05-01T00:29:25.433Z,1005.72
2019-05-01T00:30:29.960Z,1005.67
2019-05-01T00:31:26.390Z,1005.70
2019-05-01T00:32:25.391Z,1005.68
2019-05-01T00:33:25.480Z,1005.68
2019-05-01T00:34:25.360Z,1005.72
2019-05-01T00:35:25.361Z,1005.68
2019-05-01T00:36:25.343Z,1005.67
2019-05-01T00:37:25.345Z,1005.66
2019-05-01T00:38:25.330Z,1005.71
2019-05-01T00:39:25.401Z,1005.62
2019-05-01T00:40:25.312Z,1005.64
2019-05-01T00:41:25.293Z,1005.65
2019-05-01T00:42:25.277Z,1005.60
2019-05-01T00:43:25.261Z,1005.63
2019-05-01T00:44:25.353Z,1005.54
2019-05-01T00:45:25.245Z,1005.63
2019-05-01T00:46:25.221Z,1005.57
2019-05-01T00:47:25.222Z,1005.62
2019-05-01T00:48:25.210Z,1005.67
2019-05-01T00:49:25.351Z,1005.66
2019-05-01T00:50:25.202Z,1005.67
2019-05-01T00:51:25.182Z,1005.62
2019-05-01T00:52:25.173Z,1005.59
2019-05-01T00:53:25.165Z,1005.55
2019-05-01T00:54:25.141Z,1005.58
2019-05-01T00:55:25.230Z,1005.60
2019-05-01T00:56:25.119Z,1005.59
2019-05-01T00:57:25.123Z,1005.54
2019-05-01T00:58:25.103Z,1005.57
2019-05-01T00:59:25.081Z,1005.63
2019-05-01T01:00:25.193Z,1005.60
2019-05-01T01:01:25.061Z,1005.63
2019-05-01T01:02:25.073Z,1005.57
2019-05-01T01:03:25.042Z,1005.56
2019-05-01T01:04:25.054Z,1005.55
2019-05-01T01:05:25.033Z,1005.59
2019-05-01T01:06:25.049Z,1005.56
2019-05-01T01:07:25.004Z,1005.52
2019-05-01T01:08:24.991Z,1005.56
2019-05-01T01:09:24.980Z,1005.53
2019-05-01T01:10:24.962Z,1005.49
2019-05-01T01:11:25.005Z,1005.51
2019-05-01T01:12:24.953Z,1005.47
2019-05-01T01:13:24.931Z,1005.47
2019-05-01T01:14:24.952Z,1005.44
2019-05-01T01:15:24.924Z,1005.50
2019-05-01T01:16:24.900Z,1005.45
2019-05-01T01:17:24.946Z,1005.35
2019-05-01T01:18:24.881Z,1005.41
2019-05-01T01:19:24.861Z,1005.38
2019-05-01T01:20:24.872Z,1005.34
2019-05-01T01:21:24.841Z,1005.34
2019-05-01T01:22:24.844Z,1005.28
2019-05-01T01:23:24.894Z,1005.30
2019-05-01T01:24:24.812Z,1005.30
2019-05-01T01:25:24.814Z,1005.28
2019-05-01T01:26:24.791Z,1005.30
2019-05-01T01:27:24.794Z,1005.21
2019-05-01T01:28:24.772Z,1005.28
2019-05-01T01:29:24.772Z,1005.26
2019-05-01T01:30:24.767Z,1005.23
2019-05-01T01:31:24.765Z,1005.31
2019-05-01T01:32:24.733Z,1005.32
2019-05-01T01:33:24.711Z,1005.36
2019-05-01T01:34:24.714Z,1005.31
2019-05-01T01:35:24.695Z,1005.27
2019-05-01T01:36:24.722Z,1005.23
2019-05-01T01:37:24.681Z,1005.24
2019-05-01T01:38:24.664Z,1005.24
2019-05-01T01:39:24.652Z,1005.17
2019-05-01T01:40:24.642Z,1005.28
2019-05-01T01:41:24.622Z,1005.26
2019-05-01T01:42:32.362Z,1005.20
2019-05-01T01:43:24.612Z,1005.32
2019-05-01T01:44:24.605Z,1005.18
2019-05-01T01:45:24.594Z,1005.31
2019-05-01T01:46:24.584Z,1005.29
2019-05-01T01:47:24.584Z,1005.21
2019-05-01T01:48:24.644Z,1005.26
2019-05-01T01:49:24.542Z,1005.19
2019-05-01T01:50:24.532Z,1005.18
2019-05-01T01:51:24.512Z,1005.12
2019-05-01T01:52:24.503Z,1005.18
2019-05-01T01:53:24.593Z,1005.17
2019-05-01T01:54:24.504Z,1005.18
2019-05-01T01:55:24.473Z,1005.19
2019-05-01T01:56:24.462Z,1005.17
2019-05-01T01:57:24.452Z,1005.05
2019-05-01T01:58:24.534Z,1005.18
2019-05-01T01:59:24.474Z,1005.21
2019-05-01T02:00:24.439Z,1005.24
2019-05-01T02:01:24.412Z,1005.25
2019-05-01T02:02:24.404Z,1005.24
2019-05-01T02:03:24.401Z,1005.14
2019-05-01T02:04:24.456Z,1005.17
2019-05-01T02:05:24.374Z,1005.12
2019-05-01T02:06:24.366Z,1005.13
2019-05-01T02:07:24.343Z,1005.17
2019-05-01T02:08:24.333Z,1005.10
2019-05-01T02:09:24.325Z,1005.13
2019-05-01T02:10:24.424Z,1005.16
2019-05-01T02:11:24.303Z,1005.18
2019-05-01T02:12:24.291Z,1005.10
2019-05-01T02:13:24.361Z,1005.01
2019-05-01T02:14:24.275Z,1005.00
2019-05-01T02:15:24.265Z,1005.08
2019-05-01T02:16:24.292Z,1005.05
2019-05-01T02:17:24.236Z,1004.99
2019-05-01T02:18:24.245Z,1005.01
2019-05-01T02:19:24.226Z,1005.06
2019-05-01T02:20:24.192Z,1005.06
2019-05-01T02:21:24.195Z,1005.09
2019-05-01T02:22:24.183Z,1005.05
2019-05-01T02:23:24.204Z,1005.13
2019-05-01T02:24:24.153Z,1005.10
2019-05-01T02:25:24.199Z,1005.08
2019-05-01T02:26:24.143Z,1005.17
2019-05-01T02:27:24.127Z,1005.10
2019-05-01T02:28:24.126Z,1005.10
2019-05-01T02:29:24.198Z,1005.15
2019-05-01T02:30:24.096Z,1005.13
2019-05-01T02:31:29.262Z,1005.09
2019-05-01T02:32:25.075Z,1005.11
2019-05-01T02:33:24.077Z,1005.11
2019-05-01T02:34:24.142Z,1005.09
2019-05-01T02:35:24.046Z,1005.05
2019-05-01T02:36:24.067Z,1005.13
2019-05-01T02:37:24.026Z,1005.12
2019-05-01T02:38:24.021Z,1005.05
2019-05-01T02:39:24.067Z,1005.09
2019-05-01T02:40:23.984Z,1005.03
2019-05-01T02:41:23.976Z,1005.00
2019-05-01T02:42:23.967Z,1004.97
2019-05-01T02:43:23.957Z,1005.04
2019-05-01T02:44:23.984Z,1005.02
2019-05-01T02:45:23.935Z,1005.02
2019-05-01T02:46:23.924Z,1005.05
2019-05-01T02:47:23.903Z,1005.06
2019-05-01T02:48:23.894Z,1005.04
2019-05-01T02:49:23.896Z,1005.06
2019-05-01T02:50:23.886Z,1005.01
2019-05-01T02:51:23.861Z,1005.01
2019-05-01T02:52:23.947Z,1005.11
2019-05-01T02:53:23.833Z,1005.02
2019-05-01T02:54:23.827Z,1004.98
2019-05-01T02:55:23.925Z,1004.99
2019-05-01T02:56:23.830Z,1004.96
2019-05-01T02:57:23.801Z,1004.93
2019-05-01T02:58:23.817Z,1004.93
2019-05-01T02:59:23.781Z,1004.96
2019-05-01T03:00:23.859Z,1005.01
2019-05-01T03:01:23.767Z,1004.97
2019-05-01T03:02:23.748Z,1005.00
2019-05-01T03:03:23.735Z,1004.94
2019-05-01T03:04:23.737Z,1004.96
2019-05-01T03:05:23.718Z,1004.88
2019-05-01T03:06:23.796Z,1004.89
2019-05-01T03:07:23.683Z,1004.88
2019-05-01T03:08:23.691Z,1004.91
2019-05-01T03:09:23.694Z,1004.88
2019-05-01T03:10:23.736Z,1004.85
2019-05-01T03:11:23.656Z,1004.90
2019-05-01T03:12:23.647Z,1004.80
2019-05-01T03:13:23.614Z,1004.85
2019-05-01T03:14:23.617Z,1004.84
2019-05-01T03:15:23.607Z,1004.81
2019-05-01T03:16:23.683Z,1004.80
2019-05-01T03:17:23.596Z,1004.77
2019-05-01T03:18:23.578Z,1004.78
2019-05-01T03:19:23.578Z,1004.81
2019-05-01T03:20:23.555Z,1004.79
2019-05-01T03:21:23.555Z,1004.75
2019-05-01T03:22:23.615Z,1004.78
2019-05-01T03:23:23.530Z,1004.75
2019-05-01T03:24:23.517Z,1004.71
2019-05-01T03:25:23.495Z,1004.79
2019-05-01T03:26:23.484Z,1004.74
2019-05-01T03:27:23.568Z,1004.76
2019-05-01T03:28:23.468Z,1004.74
2019-05-01T03:29:23.456Z,1004.82
2019-05-01T03:30:23.435Z,1004.82
2019-05-01T03:31:23.437Z,1004.83
2019-05-01T03:32:23.506Z,1004.84
2019-05-01T03:33:23.414Z,1004.84
2019-05-01T03:34:23.395Z,1004.84
2019-05-01T03:35:23.403Z,1004.91
2019-05-01T03:36:23.376Z,1004.88
2019-05-01T03:37:23.386Z,1004.80
2019-05-01T03:38:23.377Z,1004.80
2019-05-01T03:39:23.337Z,1004.81
2019-05-01T03:40:23.338Z,1004.85
2019-05-01T03:41:23.320Z,1004.84
2019-05-01T03:42:23.315Z,1004.86
2019-05-01T03:43:23.318Z,1004.88
2019-05-01T03:44:23.291Z,1004.84
2019-05-01T03:45:23.286Z,1004.85
2019-05-01T03:46:23.283Z,1004.80
2019-05-01T03:47:23.256Z,1004.83
2019-05-01T03:48:23.324Z,1004.71
2019-05-01T03:49:23.224Z,1004.82
2019-05-01T03:50:23.224Z,1004.87
2019-05-01T03:51:23.218Z,1004.83
2019-05-01T03:52:23.195Z,1004.82
2019-05-01T03:53:23.204Z,1004.80
2019-05-01T03:54:23.188Z,1004.78
2019-05-01T03:55:23.188Z,1004.78
2019-05-01T03:56:23.177Z,1004.80
2019-05-01T03:57:23.145Z,1004.74
2019-05-01T03:58:23.135Z,1004.78
2019-05-01T03:59:23.216Z,1004.82
2019-05-01T04:00:23.120Z,1004.80
2019-05-01T04:01:23.104Z,1004.71
2019-05-01T04:02:33.122Z,1004.73
2019-05-01T04:03:24.089Z,1004.67
2019-05-01T04:04:23.157Z,1004.67
2019-05-01T04:05:23.068Z,1004.66
2019-05-01T04:06:23.063Z,1004.68
2019-05-01T04:07:23.037Z,1004.61
2019-05-01T04:08:23.067Z,1004.62
2019-05-01T04:09:23.119Z,1004.65
2019-05-01T04:10:23.008Z,1004.66
2019-05-01T04:11:22.997Z,1004.73
2019-05-01T04:12:22.982Z,1004.65
2019-05-01T04:13:22.988Z,1004.64
2019-05-01T04:14:22.984Z,1004.58
2019-05-01T04:15:23.014Z,1004.68
2019-05-01T04:16:22.935Z,1004.54
2019-05-01T04:17:23.016Z,1004.65
2019-05-01T04:18:22.944Z,1004.65
2019-05-01T04:19:22.903Z,1004.58
2019-05-01T04:20:22.930Z,1004.63
2019-05-01T04:21:22.897Z,1004.67
2019-05-01T04:22:22.864Z,1004.59
2019-05-01T04:23:22.895Z,1004.57
2019-05-01T04:24:22.855Z,1004.61
2019-05-01T04:25:22.941Z,1004.58
2019-05-01T04:26:22.845Z,1004.56
2019-05-01T04:27:22.815Z,1004.58
2019-05-01T04:28:22.818Z,1004.58
2019-05-01T04:29:22.810Z,1004.72
2019-05-01T04:30:22.867Z,1004.75
2019-05-01T04:31:22.777Z,1004.69
2019-05-01T04:32:22.766Z,1004.74
2019-05-01T04:33:22.758Z,1004.70
2019-05-01T04:34:22.753Z,1004.78
2019-05-01T04:35:22.738Z,1004.71
2019-05-01T04:36:22.804Z,1004.75
2019-05-01T04:37:22.706Z,1004.73
2019-05-01T04:38:22.717Z,1004.78
2019-05-01T04:39:22.694Z,1004.76
2019-05-01T04:40:22.674Z,1004.71
2019-05-01T04:41:22.678Z,1004.79
2019-05-01T04:42:22.667Z,1004.81
2019-05-01T04:43:22.647Z,1004.83
2019-05-01T04:44:22.657Z,1004.76
2019-05-01T04:45:22.647Z,1004.81
2019-05-01T04:46:22.705Z,1004.86
2019-05-01T04:47:22.596Z,1004.86
2019-05-01T04:48:22.597Z,1004.89
2019-05-01T04:49:22.576Z,1004.87
2019-05-01T04:50:22.556Z,1004.88
2019-05-01T04:51:22.565Z,1004.93
2019-05-01T04:52:22.536Z,1004.98
2019-05-01T04:53:22.537Z,1004.91
2019-05-01T04:54:22.526Z,1004.96
2019-05-01T04:55:23.681Z,1004.89
2019-05-01T04:56:22.567Z,1004.97
2019-05-01T04:57:22.487Z,1004.94
2019-05-01T04:58:22.567Z,1005.00
2019-05-01T04:59:22.465Z,1005.04
2019-05-01T05:00:22.456Z,1004.98
2019-05-01T05:01:22.445Z,1005.08
2019-05-01T05:02:22.513Z,1005.01
2019-05-01T05:03:22.426Z,1005.05
2019-05-01T05:04:22.413Z,1004.98
2019-05-01T05:05:22.422Z,1005.02
2019-05-01T05:06:22.396Z,1004.93
2019-05-01T05:07:22.374Z,1004.94
2019-05-01T05:08:22.456Z,1004.93
2019-05-01T05:09:22.365Z,1004.91
2019-05-01T05:10:22.348Z,1004.98
2019-05-01T05:11:22.346Z,1004.96
2019-05-01T05:12:22.415Z,1004.97
2019-05-01T05:13:22.317Z,1004.96
2019-05-01T05:14:22.308Z,1004.97
2019-05-01T05:15:22.297Z,1004.96
2019-05-01T05:16:22.279Z,1005.03
2019-05-01T05:17:22.307Z,1005.00
2019-05-01T05:18:22.347Z,1005.05
2019-05-01T05:19:22.336Z,1005.03
2019-05-01T05:20:22.246Z,1005.06
2019-05-01T05:21:22.228Z,1004.99
2019-05-01T05:22:22.222Z,1005.10
2019-05-01T05:23:22.295Z,1005.06
2019-05-01T05:24:22.257Z,1005.08
2019-05-01T05:25:22.185Z,1005.09
2019-05-01T05:26:22.187Z,1005.10
2019-05-01T05:27:22.180Z,1005.07
2019-05-01T05:28:22.238Z,1005.04
2019-05-01T05:29:22.147Z,1005.09
2019-05-01T05:30:22.137Z,1005.09
2019-05-01T05:31:22.117Z,1005.09
2019-05-01T05:32:22.107Z,1005.11
2019-05-01T05:33:22.195Z,1005.14
2019-05-01T05:34:22.097Z,1005.07
2019-05-01T05:35:22.076Z,1005.12
2019-05-01T05:36:22.078Z,1005.14
2019-05-01T05:37:22.038Z,1005.13
2019-05-01T05:38:22.123Z,1005.19
2019-05-01T05:39:22.118Z,1005.21
2019-05-01T05:40:22.028Z,1005.21
2019-05-01T05:41:22.018Z,1005.23
2019-05-01T05:42:22.007Z,1005.27
2019-05-01T05:43:21.978Z,1005.29
2019-05-01T05:44:21.988Z,1005.24
2019-05-01T05:45:21.993Z,1005.32
2019-05-01T05:46:21.968Z,1005.20
2019-05-01T05:47:21.938Z,1005.23
2019-05-01T05:48:21.939Z,1005.23
2019-05-01T05:49:21.986Z,1005.24
2019-05-01T05:50:21.919Z,1005.20
2019-05-01T05:51:21.896Z,1005.24
2019-05-01T05:52:21.888Z,1005.22
2019-05-01T05:53:21.888Z,1005.21
2019-05-01T05:54:21.878Z,1005.29
2019-05-01T05:55:21.939Z,1005.20
2019-05-01T05:56:21.846Z,1005.20
2019-05-01T05:57:21.839Z,1005.25
2019-05-01T05:58:21.828Z,1005.34
2019-05-01T05:59:21.808Z,1005.25
2019-05-01T06:00:21.886Z,1005.28
2019-05-01T06:01:21.797Z,1005.32
2019-05-01T06:02:21.779Z,1005.29
2019-05-01T06:03:31.016Z,1005.29
2019-05-01T06:04:22.759Z,1005.22
2019-05-01T06:05:21.819Z,1005.28
2019-05-01T06:06:21.809Z,1005.23
2019-05-01T06:07:21.729Z,1005.27
2019-05-01T06:08:21.719Z,1005.25
2019-05-01T06:09:21.709Z,1005.20
2019-05-01T06:10:23.237Z,1005.24
2019-05-01T06:11:21.689Z,1005.16
2019-05-01T06:12:21.681Z,1005.19
2019-05-01T06:13:22.982Z,1005.21
2019-05-01T06:14:21.681Z,1005.26
2019-05-01T06:15:21.716Z,1005.10
2019-05-01T06:16:21.712Z,1005.18
2019-05-01T06:17:23.696Z,1005.18
2019-05-01T06:18:22.599Z,1005.15
2019-05-01T06:19:21.607Z,1005.11
2019-05-01T06:20:25.862Z,1005.18
2019-05-01T06:21:22.590Z,1005.06
2019-05-01T06:22:21.557Z,1005.07
2019-05-01T06:23:22.535Z,1005.09
2019-05-01T06:24:21.547Z,1005.08
2019-05-01T06:25:24.387Z,1005.13
2019-05-01T06:26:21.590Z,1005.13
2019-05-01T06:27:21.508Z,1005.12
2019-05-01T06:28:24.799Z,1005.10
2019-05-01T06:29:21.487Z,1005.05
2019-05-01T06:30:21.488Z,1005.14
2019-05-01T06:31:23.136Z,1005.09
2019-05-01T06:32:21.541Z,1005.07
2019-05-01T06:33:21.446Z,1005.11
2019-05-01T06:34:23.812Z,1005.12
2019-05-01T06:35:22.417Z,1005.05
2019-05-01T06:36:23.852Z,1005.09
2019-05-01T06:37:25.301Z,1005.08
2019-05-01T06:38:22.397Z,1005.15
2019-05-01T06:39:21.380Z,1005.03
2019-05-01T06:40:22.546Z,1005.05
2019-05-01T06:41:21.348Z,1005.04
2019-05-01T06:42:21.359Z,1005.03
2019-05-01T06:43:25.353Z,1005.06
2019-05-01T06:44:22.408Z,1005.05
2019-05-01T06:45:21.319Z,1005.04
2019-05-01T06:46:22.114Z,1005.02
2019-05-01T06:47:22.278Z,1005.02
2019-05-01T06:48:21.300Z,1005.01
2019-05-01T06:49:24.378Z,1004.95
2019-05-01T06:50:22.252Z,1005.06
2019-05-01T06:51:21.249Z,1004.98
2019-05-01T06:52:25.006Z,1004.99
2019-05-01T06:53:22.300Z,1004.99
2019-05-01T06:54:21.307Z,1005.02
2019-05-01T06:55:22.602Z,1005.03
2019-05-01T06:56:22.191Z,1005.06
2019-05-01T06:57:21.179Z,1005.08
2019-05-01T06:58:21.879Z,1005.10
2019-05-01T06:59:21.148Z,1005.12
2019-05-01T07:00:21.242Z,1005.09
2019-05-01T07:01:23.912Z,1005.15
2019-05-01T07:02:21.121Z,1005.13
2019-05-01T07:03:21.121Z,1005.08
2019-05-01T07:04:21.194Z,1005.08
2019-05-01T07:05:21.091Z,1005.03
2019-05-01T07:06:21.085Z,1005.14
2019-05-01T07:07:25.449Z,1005.07
2019-05-01T07:08:24.801Z,1005.12
2019-05-01T07:09:27.660Z,1005.09
2019-05-01T07:10:30.242Z,1005.07
2019-05-01T07:11:22.036Z,1005.06
2019-05-01T07:12:23.820Z,1005.09
2019-05-01T07:13:22.009Z,1005.09
2019-05-01T07:14:20.992Z,1005.04
2019-05-01T07:15:22.033Z,1005.05
2019-05-01T07:16:21.968Z,1005.04
2019-05-01T07:17:20.969Z,1005.06
2019-05-01T07:18:24.161Z,1005.10
2019-05-01T07:19:21.921Z,1005.02
2019-05-01T07:20:20.950Z,1005.06
2019-05-01T07:21:22.737Z,1005.07
2019-05-01T07:22:21.912Z,1004.99
2019-05-01T07:23:20.884Z,1005.02
2019-05-01T07:24:23.996Z,1005.05
2019-05-01T07:25:21.880Z,1005.08
2019-05-01T07:26:22.829Z,1005.02
2019-05-01T07:27:23.624Z,1005.04
2019-05-01T07:28:20.834Z,1005.10
2019-05-01T07:29:20.835Z,1005.08
2019-05-01T07:30:20.966Z,1005.06
2019-05-01T07:31:20.811Z,1005.09
2019-05-01T07:32:20.824Z,1005.13
2019-05-01T07:33:20.783Z,1005.08
2019-05-01T07:34:21.669Z,1005.12
2019-05-01T07:35:21.763Z,1005.04
2019-05-01T07:36:20.744Z,1005.11
2019-05-01T07:37:25.432Z,1005.10
2019-05-01T07:38:21.734Z,1005.09
2019-05-01T07:39:20.703Z,1005.10
2019-05-01T07:40:28.795Z,1005.12
2019-05-01T07:41:21.697Z,1005.13
2019-05-01T07:42:20.672Z,1005.18
2019-05-01T07:43:23.897Z,1005.15
2019-05-01T07:44:20.672Z,1005.16
2019-05-01T07:45:20.657Z,1005.18
2019-05-01T07:46:20.642Z,1005.11
2019-05-01T07:47:20.632Z,1005.10
2019-05-01T07:48:20.626Z,1005.08
2019-05-01T07:49:20.605Z,1005.10
2019-05-01T07:50:23.870Z,1005.11
2019-05-01T07:51:21.593Z,1005.10
2019-05-01T07:52:20.562Z,1005.14
2019-05-01T07:53:23.847Z,1005.11
2019-05-01T07:54:21.546Z,1005.11
2019-05-01T07:55:20.546Z,1005.06
2019-05-01T07:56:22.862Z,1005.08
2019-05-01T07:57:23.052Z,1005.05
2019-05-01T07:58:20.516Z,1005.07
2019-05-01T07:59:22.760Z,1005.09
2019-05-01T08:00:21.486Z,1005.07
2019-05-01T08:01:20.463Z,1005.02
2019-05-01T08:02:20.456Z,1005.05
2019-05-01T08:03:20.456Z,1005.06
2019-05-01T08:04:35.316Z,1005.04
2019-05-01T08:05:21.424Z,1005.09
2019-05-01T08:06:21.458Z,1005.04
2019-05-01T08:07:20.394Z,1005.03
2019-05-01T08:08:20.397Z,1005.05
2019-05-01T08:09:20.376Z,1005.06
2019-05-01T08:10:21.056Z,1005.01
2019-05-01T08:11:20.383Z,1005.00
2019-05-01T08:12:23.908Z,1004.96
2019-05-01T08:13:21.334Z,1005.05
2019-05-01T08:14:20.335Z,1005.03
2019-05-01T08:15:22.545Z,1005.05
2019-05-01T08:16:21.297Z,1005.11
2019-05-01T08:17:20.296Z,1005.05
2019-05-01T08:18:24.094Z,1005.11
2019-05-01T08:19:21.300Z,1005.14
2019-05-01T08:20:20.345Z,1005.06
2019-05-01T08:21:21.134Z,1005.02
2019-05-01T08:22:21.258Z,1005.04
2019-05-01T08:23:20.275Z,1005.06
2019-05-01T08:24:22.990Z,1005.00
2019-05-01T08:25:20.198Z,1005.03
2019-05-01T08:26:20.196Z,1005.01
2019-05-01T08:27:21.306Z,1005.06
2019-05-01T08:28:20.176Z,1005.07
2019-05-01T08:29:20.166Z,1005.05
2019-05-01T08:30:20.159Z,1005.02
2019-05-01T08:31:23.038Z,1005.04
2019-05-01T08:32:21.128Z,1005.02
2019-05-01T08:33:20.160Z,1005.07
2019-05-01T08:34:20.626Z,1005.03
2019-05-01T08:35:20.109Z,1005.06
2019-05-01T08:36:20.156Z,1005.02
2019-05-01T08:37:22.450Z,1005.08
2019-05-01T08:38:20.068Z,1005.12
2019-05-01T08:39:20.050Z,1005.09
2019-05-01T08:40:20.478Z,1005.11
2019-05-01T08:41:20.059Z,1005.06
2019-05-01T08:42:20.021Z,1005.06
2019-05-01T08:43:20.020Z,1005.11
2019-05-01T08:44:19.988Z,1005.16
2019-05-01T08:45:19.992Z,1005.15
2019-05-01T08:46:19.980Z,1005.14
2019-05-01T08:47:20.702Z,1005.17
2019-05-01T08:48:20.961Z,1005.16
2019-05-01T08:49:19.952Z,1005.17
2019-05-01T08:50:24.592Z,1005.12
2019-05-01T08:51:20.919Z,1005.14
2019-05-01T08:52:20.000Z,1005.21
2019-05-01T08:53:22.067Z,1005.12
2019-05-01T08:54:19.901Z,1005.13
2019-05-01T08:55:19.968Z,1005.11
2019-05-01T08:56:21.860Z,1005.12
2019-05-01T08:57:19.931Z,1005.10
2019-05-01T08:58:19.851Z,1005.12
2019-05-01T08:59:23.900Z,1005.09
2019-05-01T09:00:20.818Z,1005.12
2019-05-01T09:01:19.808Z,1005.09
2019-05-01T09:02:19.823Z,1005.08
2019-05-01T09:03:20.482Z,1005.09
2019-05-01T09:04:19.792Z,1005.08
2019-05-01T09:05:28.738Z,1004.97
2019-05-01T09:06:20.763Z,1005.05
2019-05-01T09:07:22.574Z,1005.04
2019-05-01T09:08:19.800Z,1005.06
2019-05-01T09:09:19.723Z,1005.05
2019-05-01T09:10:21.597Z,1005.09
2019-05-01T09:11:19.700Z,1005.03
2019-05-01T09:12:19.713Z,1005.09
2019-05-01T09:13:23.717Z,1005.04
2019-05-01T09:14:20.673Z,1005.02
2019-05-01T09:15:19.694Z,1004.97
2019-05-01T09:16:23.478Z,1004.98
2019-05-01T09:17:20.634Z,1005.01
2019-05-01T09:18:19.623Z,1005.04
2019-05-01T09:19:19.615Z,1005.10
2019-05-01T09:20:19.605Z,1004.95
2019-05-01T09:21:19.675Z,1005.02
2019-05-01T09:22:19.573Z,1004.92
2019-05-01T09:23:19.576Z,1004.90
2019-05-01T09:24:23.161Z,1004.95
2019-05-01T09:25:20.543Z,1004.98
2019-05-01T09:26:19.555Z,1005.00
2019-05-01T09:27:24.054Z,1005.24
2019-05-01T09:28:20.520Z,1005.12
2019-05-01T09:29:19.493Z,1005.22
2019-05-01T09:30:21.716Z,1005.01
2019-05-01T09:31:20.484Z,1004.92
2019-05-01T09:32:19.476Z,1004.98
2019-05-01T09:33:19.467Z,1005.05
2019-05-01T09:34:21.050Z,1005.11
2019-05-01T09:35:19.795Z,1004.89
2019-05-01T09:36:19.907Z,1004.90
2019-05-01T09:37:19.627Z,1004.94
2019-05-01T09:38:19.476Z,1004.97
2019-05-01T09:39:19.395Z,1004.89
2019-05-01T09:40:19.396Z,1004.98
2019-05-01T09:41:19.380Z,1004.98
2019-05-01T09:42:23.677Z,1005.02
2019-05-01T09:43:20.335Z,1005.10
2019-05-01T09:44:19.336Z,1004.87
2019-05-01T09:45:19.329Z,1005.26
2019-05-01T09:46:19.409Z,1004.91
2019-05-01T09:47:19.307Z,1004.91
2019-05-01T09:48:19.290Z,1004.85
2019-05-01T09:49:19.546Z,1004.85
2019-05-01T09:50:19.361Z,1004.85
2019-05-01T09:51:19.270Z,1004.99
2019-05-01T09:52:23.320Z,1004.85
2019-05-01T09:53:20.291Z,1004.84
2019-05-01T09:54:19.233Z,1005.16
2019-05-01T09:55:23.200Z,1004.87
2019-05-01T09:56:20.279Z,1004.84
2019-05-01T09:57:19.178Z,1004.81
2019-05-01T09:58:19.189Z,1004.90
2019-05-01T09:59:19.230Z,1004.93
2019-05-01T10:00:19.159Z,1005.13
2019-05-01T10:01:19.158Z,1005.23
2019-05-01T10:02:19.130Z,1005.16
2019-05-01T10:03:19.131Z,1005.00
2019-05-01T10:04:19.134Z,1004.92
2019-05-01T10:05:28.630Z,1004.94
2019-05-01T10:06:20.171Z,1004.95
2019-05-01T10:07:19.083Z,1004.81
2019-05-01T10:08:19.091Z,1004.78
2019-05-01T10:09:19.061Z,1004.74
2019-05-01T10:10:19.054Z,1004.74
2019-05-01T10:11:19.033Z,1005.07
2019-05-01T10:12:19.100Z,1004.84
2019-05-01T10:13:22.505Z,1004.81
2019-05-01T10:14:20.019Z,1005.13
2019-05-01T10:15:19.009Z,1004.79
2019-05-01T10:16:18.986Z,1004.72
2019-05-01T10:17:19.099Z,1004.68
2019-05-01T10:18:18.964Z,1004.70
2019-05-01T10:19:18.956Z,1004.70
2019-05-01T10:20:18.948Z,1004.79
2019-05-01T10:21:22.347Z,1004.66
2019-05-01T10:22:20.007Z,1004.74
2019-05-01T10:23:18.918Z,1004.81
2019-05-01T10:24:18.907Z,1004.78
2019-05-01T10:25:18.898Z,1004.70
2019-05-01T10:26:23.502Z,1004.75
2019-05-01T10:27:19.977Z,1004.84
2019-05-01T10:28:18.856Z,1004.92
2019-05-01T10:29:21.340Z,1005.03
2019-05-01T10:30:19.826Z,1005.02
2019-05-01T10:31:18.816Z,1004.78
2019-05-01T10:32:21.700Z,1004.70
2019-05-01T10:33:18.886Z,1005.00
2019-05-01T10:34:18.799Z,1004.78
2019-05-01T10:35:19.613Z,1004.90
2019-05-01T10:36:20.595Z,1005.02
2019-05-01T10:37:18.760Z,1005.06
2019-05-01T10:38:18.840Z,1005.04
2019-05-01T10:39:19.733Z,1005.00
2019-05-01T10:40:18.722Z,1004.71
2019-05-01T10:41:18.710Z,1005.00
2019-05-01T10:42:18.811Z,1004.87
2019-05-01T10:43:18.713Z,1005.04
2019-05-01T10:44:18.774Z,1005.08
2019-05-01T10:45:18.670Z,1004.55
2019-05-01T10:46:18.660Z,1004.54
2019-05-01T10:47:18.653Z,1004.95
2019-05-01T10:48:18.644Z,1004.94
2019-05-01T10:49:18.744Z,1004.91
2019-05-01T10:50:18.633Z,1004.65
2019-05-01T10:51:18.603Z,1004.52
2019-05-01T10:52:18.602Z,1004.54
2019-05-01T10:53:18.585Z,1004.70
2019-05-01T10:54:18.583Z,1004.89
2019-05-01T10:55:18.654Z,1004.88
2019-05-01T10:56:18.554Z,1004.91
2019-05-01T10:57:18.545Z,1004.66
2019-05-01T10:58:20.247Z,1004.53
2019-05-01T10:59:18.527Z,1004.49
2019-05-01T11:00:18.598Z,1004.80
2019-05-01T11:01:18.499Z,1004.42
2019-05-01T11:02:18.498Z,1004.66
2019-05-01T11:03:18.476Z,1004.79
2019-05-01T11:04:18.476Z,1004.88
2019-05-01T11:05:18.866Z,1004.79
2019-05-01T11:06:18.556Z,1004.90
2019-05-01T11:07:18.440Z,1004.39
2019-05-01T11:08:18.429Z,1004.73
2019-05-01T11:09:18.420Z,1004.80
2019-05-01T11:10:18.398Z,1004.83
2019-05-01T11:11:18.388Z,1004.82
2019-05-01T11:12:18.470Z,1004.66
2019-05-01T11:13:18.369Z,1004.65
2019-05-01T11:14:18.359Z,1004.85
2019-05-01T11:15:18.350Z,1004.87
2019-05-01T11:16:18.341Z,1004.41
2019-05-01T11:17:18.422Z,1004.47
2019-05-01T11:18:18.394Z,1004.50
2019-05-01T11:19:18.311Z,1004.68
2019-05-01T11:20:18.300Z,1004.79
2019-05-01T11:21:18.281Z,1004.74
2019-05-01T11:22:18.271Z,1004.74
2019-05-01T11:23:18.262Z,1004.70
2019-05-01T11:24:18.335Z,1004.68
2019-05-01T11:25:18.243Z,1004.71
2019-05-01T11:26:18.234Z,1004.72
2019-05-01T11:27:18.332Z,1004.70
2019-05-01T11:28:18.225Z,1004.68
2019-05-01T11:29:18.257Z,1004.71
2019-05-01T11:30:18.196Z,1004.69
2019-05-01T11:31:18.187Z,1004.60
2019-05-01T11:32:18.196Z,1004.23
2019-05-01T11:33:18.279Z,1004.57
2019-05-01T11:34:18.156Z,1004.63
2019-05-01T11:35:18.136Z,1004.58
2019-05-01T11:36:18.140Z,1004.66
2019-05-01T11:37:18.110Z,1004.67
2019-05-01T11:38:18.117Z,1004.66
2019-05-01T11:39:18.235Z,1004.50
2019-05-01T11:40:18.102Z,1004.55
2019-05-01T11:41:18.077Z,1004.54
2019-05-01T11:42:18.067Z,1004.51
2019-05-01T11:43:18.061Z,1004.60
2019-05-01T11:44:18.051Z,1004.59
2019-05-01T11:45:18.119Z,1004.54
2019-05-01T11:46:18.029Z,1004.57
2019-05-01T11:47:18.012Z,1004.57
2019-05-01T11:48:17.991Z,1004.54
2019-05-01T11:49:17.981Z,1004.60
2019-05-01T11:50:18.034Z,1004.54
2019-05-01T11:51:17.973Z,1004.20
2019-05-01T11:52:17.964Z,1004.50
2019-05-01T11:53:17.943Z,1003.91
2019-05-01T11:54:17.938Z,1004.32
2019-05-01T11:55:17.986Z,1004.32
2019-05-01T11:56:17.916Z,1004.44
2019-05-01T11:57:17.914Z,1004.47
2019-05-01T11:58:17.901Z,1004.47
2019-05-01T11:59:17.874Z,1004.47
2019-05-01T12:00:17.865Z,1004.49
2019-05-01T12:01:17.897Z,1004.48
2019-05-01T12:02:17.855Z,1004.40
2019-05-01T12:03:17.835Z,1004.37
2019-05-01T12:04:17.849Z,1004.40
2019-05-01T12:05:17.838Z,1004.38